Thunder radar more information blitzortung!


Radar de pluja more information rain snow radar


Visita la nostra xarxa de llocs de meteo:

Template documentation
and downloads

And another site



No particular awareness of the weather is required.    There are no Weather-warnings

Pagina Historial Weather Underground text

Diari Resum Setembre 14, 2017 Unitats:  Mètric    Imperial   Tant
« Previous Dia
SegĂźent Dia »
Diari Setmana Mensual Anual Personalitzada
  Maxima: Minima: Media:
Temperatura: -17.8 °C -9.4 °C -6.9 °C
Punt de rosada: -17.8 °C -11.4 °C -10.3 °C
Humitat: Humidity % 52 % 67 %
Wind Speed: 0 km/h 0 km/h 6.6 km/h
RĂ fegues de vent: 0 km/h - -
Vent:- - South
Pression baro: 0 hPa 34327.3 hPa -
Precipitacions: 0 mm    
Historical Graphs
 
 
Dades de taula per Setembre 14, 2017
Temps Temperatura Punt de rosada Pression baro Vent Wind Speed RĂ fegues de vent Humitat Rainfall Rate (Hourly)
-17.8 °C -17.8 °C 0 hPa Calm     Humidity % 0 mm
00:04 -6.4 °C -8.7 °C 34462.7 hPa West 6 km/h 6 km/h 77 % 0 mm
00:05 -6.4 °C -8.7 °C 34462.7 hPa SW 6 km/h 6 km/h 77 % 0 mm
19:15 -7.7 °C -11.4 °C 34428.8 hPa ESE 5.1 km/h 5.1 km/h 65 % 0 mm
19:25 -7.7 °C -11.4 °C 34395 hPa ESE 5.1 km/h 7.7 km/h 65 % 0 mm
19:35 -7.7 °C -11.3 °C 34395 hPa Calm   5.1 km/h 66 % 0 mm
19:45 -7.9 °C -11.2 °C 34395 hPa Calm   7.7 km/h 68 % 0 mm
19:55 -8.1 °C -11.3 °C 34395 hPa SSE 5.1 km/h 5.1 km/h 69 % 0 mm
20:05 -8.1 °C -11.1 °C 34395 hPa Calm   10.3 km/h 71 % 0 mm
20:15 -8.4 °C -11.1 °C 34395 hPa South 2.6 km/h 2.6 km/h 74 % 0 mm
20:25 -8.7 °C -11.2 °C 34395 hPa SW 2.6 km/h 5.1 km/h 75 % 25.4 mm
20:35 -8.8 °C -10.9 °C 34395 hPa SSW 5.1 km/h 7.7 km/h 78 % 134.62 mm
20:45 -8.9 °C -10.9 °C 34395 hPa NE 2.6 km/h 5.1 km/h 79 % 134.62 mm
20:55 -8.9 °C -10.9 °C 34395 hPa NNE 5.1 km/h 5.1 km/h 80 % 25.4 mm
21:05 -8.9 °C -10.7 °C 34395 hPa NE 2.6 km/h 5.1 km/h 81 % 0 mm
21:15 -9 °C -10.7 °C 34395 hPa North 2.6 km/h 5.1 km/h 82 % 0 mm
21:25 -8.9 °C -10.6 °C 34395 hPa NNW 2.6 km/h 5.1 km/h 83 % 0 mm
21:35 -9.1 °C -10.9 °C 34395 hPa West 5.1 km/h 7.7 km/h 81 % 0 mm
21:42 -0.9 °C -7 °C 34327.3 hPa West 3.1 km/h   52 % 0 mm
21:43 -0.9 °C -7 °C 34327.3 hPa West 3.1 km/h   52 % 0 mm
21:45 -9.2 °C -10.9 °C 34361.1 hPa West 5.1 km/h 7.7 km/h 82 % 0 mm
21:48 -0.9 °C -7 °C 34327.3 hPa West 3.1 km/h   52 % 0 mm
21:53 -0.9 °C -7 °C 34327.3 hPa West 3.1 km/h   52 % 0 mm
21:55 -9.3 °C -11 °C 34395 hPa WNW 2.6 km/h 5.1 km/h 82 % 0 mm
21:58 -0.9 °C -7 °C 34327.3 hPa West 3.1 km/h   52 % 0 mm
22:03 -0.9 °C -7 °C 34327.3 hPa West 3.1 km/h   52 % 0 mm
22:05 -9.4 °C -11 °C 34395 hPa North 5.1 km/h 7.7 km/h 83 % 25.4 mm
22:10 -6.3 °C -9.9 °C 34428.8 hPa WSW 6.8 km/h 6.8 km/h 66 % 0 mm
22:15 -6.3 °C -9.9 °C 34428.8 hPa SW 6 km/h 6 km/h 66 % 0 mm
22:20 -6.3 °C -9.9 °C 34395 hPa WSW 6 km/h 6 km/h 66 % 0 mm
22:25 -6.3 °C -9.9 °C 34395 hPa WSW 6 km/h 6 km/h 66 % 0 mm
22:30 -6.3 °C -9.9 °C 34395 hPa WSW 6 km/h 6 km/h 66 % 0 mm
22:35 -6.3 °C -9.9 °C 34395 hPa SW 4.2 km/h   66 % 0 mm
22:40 -6.3 °C -9.9 °C 34395 hPa West 5.1 km/h   66 % 0 mm
22:45 -6.3 °C -9.9 °C 34395 hPa South 6 km/h 6 km/h 66 % 0 mm
22:50 -6.3 °C -9.9 °C 34395 hPa NNE 6 km/h 6 km/h 66 % 0 mm
22:55 -6.3 °C -9.8 °C 34395 hPa ENE 7.6 km/h 7.6 km/h 67 % 0 mm
23:00 -6.3 °C -9.7 °C 34395 hPa East 6 km/h 6 km/h 68 % 0 mm
23:05 -6.4 °C -9.8 °C 34395 hPa SE 22 km/h 22 km/h 68 % 0 mm
23:10 -6.7 °C -10.3 °C 34395 hPa East 17.9 km/h 17.9 km/h 66 % 0 mm
23:15 -6.8 °C -10.5 °C 34395 hPa ESE 15 km/h 15 km/h 65 % 0 mm
23:20 -6.9 °C -10.9 °C 34395 hPa ESE 17.9 km/h 17.9 km/h 63 % 0 mm
23:25 -7 °C -11 °C 34395 hPa East 11.9 km/h 11.9 km/h 63 % 0 mm
23:30 -7.1 °C -11.3 °C 34395 hPa ESE 15 km/h 15 km/h 62 % 0 mm
23:35 -7.2 °C -11.3 °C 34361.1 hPa ENE 15 km/h 15 km/h 62 % 0 mm
23:40 -7.3 °C -11.3 °C 34361.1 hPa ESE 17.9 km/h 17.9 km/h 63 % 0 mm
23:45 -7.5 °C -11.3 °C 34361.1 hPa ESE 17.9 km/h 17.9 km/h 64 % 0 mm
23:50 -7.5 °C -11.3 °C 34395 hPa ESE 9 km/h 9 km/h 64 % 0 mm
23:55 -7.6 °C -11.4 °C 34395 hPa ENE 6.8 km/h 6.8 km/h 64 % 0 mm
Meteo Sesrovires
Elogis d' Weather Underground - 1 mb

Guio original per  Jim McMurry - jmcmurry@mwt.net Adaptat per a la plantilla per  Wim van der Kuil - Leuven-Template.eu

Trobareu la nostra informacio del temps tambe a:

Weather Underground

AWEKAS